Time;durP1;ratioP1;P1;durP2;ratioP2;P2;SDS_P1;SDS_P2;PMS_P1;PMS_P2;Temp;Humidity;BMP_temperature;BMP_pressure;BME280_temperature;BME280_humidity;BME280_pressure;Samples;Min_cycle;Max_cycle;Signal;HPM_P1;HPM_P2
2024/03/07 00:02:17;;;;;;;90.13;42.30;;;6.40;99.90;;;;;;818529;173;27051;-79
2024/03/07 00:04:42;;;;;;;85.60;41.93;;;6.30;99.90;;;;;;809118;176;26445;-81
2024/03/07 00:07:09;;;;;;;93.03;40.77;;;6.30;99.90;;;;;;818416;173;26390;-80
2024/03/07 00:09:35;;;;;;;91.20;42.57;;;6.30;99.90;;;;;;810907;176;26454;-76
2024/03/07 00:12:02;;;;;;;90.13;41.73;;;6.40;99.90;;;;;;804485;176;26453;-79
2024/03/07 00:14:29;;;;;;;87.23;41.67;;;6.20;99.90;;;;;;831978;172;26643;-81
2024/03/07 00:16:55;;;;;;;90.57;42.47;;;6.20;99.90;;;;;;807157;176;26983;-81
2024/03/07 00:19:25;;;;;;;87.43;41.60;;;6.10;99.90;;;;;;816868;174;26435;-81
2024/03/07 00:21:49;;;;;;;85.70;42.30;;;6.10;99.90;;;;;;812734;176;26442;-80
2024/03/07 00:24:16;;;;;;;85.93;39.70;;;6.10;99.90;;;;;;806434;177;26599;-79
2024/03/07 00:26:42;;;;;;;87.43;41.27;;;6.10;99.90;;;;;;824094;172;27013;-77
2024/03/07 00:29:09;;;;;;;97.77;42.43;;;6.00;99.90;;;;;;810592;176;26532;-80
2024/03/07 00:31:35;;;;;;;91.67;42.43;;;6.00;99.90;;;;;;807115;176;26423;-79
2024/03/07 00:34:02;;;;;;;84.27;40.37;;;5.90;99.90;;;;;;820423;174;26386;-81
2024/03/07 00:36:29;;;;;;;83.70;39.30;;;6.00;99.90;;;;;;816360;174;26390;-80
2024/03/07 00:38:55;;;;;;;87.53;39.33;;;5.90;99.90;;;;;;809041;176;27055;-80
2024/03/07 00:41:22;;;;;;;83.13;40.07;;;5.90;99.90;;;;;;822411;173;26940;-80
2024/03/07 00:43:50;;;;;;;92.33;40.37;;;5.90;99.90;;;;;;806458;176;26427;-80
2024/03/07 00:46:16;;;;;;;93.33;40.43;;;6.00;99.90;;;;;;822890;172;26379;-82
2024/03/07 00:48:42;;;;;;;87.07;39.73;;;6.10;99.90;;;;;;805411;173;26458;-82
2024/03/07 00:51:09;;;;;;;90.50;39.33;;;6.10;99.90;;;;;;809944;175;26960;-79
2024/03/07 00:53:35;;;;;;;84.67;39.67;;;6.00;99.90;;;;;;821337;173;26391;-80
2024/03/07 00:56:02;;;;;;;81.10;37.70;;;5.90;99.90;;;;;;813003;173;26402;-80
2024/03/07 00:58:29;;;;;;;82.33;38.27;;;6.10;99.90;;;;;;822907;173;26446;-79
2024/03/07 01:00:55;;;;;;;83.47;37.90;;;5.90;99.90;;;;;;825455;173;26396;-78
2024/03/07 01:03:23;;;;;;;90.53;40.07;;;5.90;99.90;;;;;;807318;176;27101;-80
2024/03/07 01:05:49;;;;;;;90.33;39.63;;;6.00;99.90;;;;;;806022;176;27116;-79
2024/03/07 01:08:16;;;;;;;87.17;39.57;;;6.00;99.90;;;;;;804567;174;26447;-77
2024/03/07 01:10:43;;;;;;;83.57;38.87;;;6.00;99.90;;;;;;827239;172;26955;-79
2024/03/07 01:13:18;;;;;;;92.97;39.80;;;6.00;99.90;;;;;;829412;172;26399;-79
2024/03/07 01:15:36;;;;;;;83.10;39.40;;;6.00;99.90;;;;;;824945;173;26426;-79
2024/03/07 01:18:03;;;;;;;84.57;38.97;;;6.00;99.90;;;;;;816268;173;26606;-81
2024/03/07 01:20:29;;;;;;;85.67;38.03;;;5.80;99.90;;;;;;824357;173;26417;-80
2024/03/07 01:22:56;;;;;;;79.47;37.03;;;5.80;99.90;;;;;;813096;176;26462;-81
2024/03/07 01:25:23;;;;;;;83.40;38.33;;;5.70;99.90;;;;;;815307;172;26408;-81
2024/03/07 01:27:51;;;;;;;89.83;39.23;;;5.80;99.90;;;;;;812685;176;26453;-77
2024/03/07 01:30:16;;;;;;;83.43;38.03;;;5.70;99.90;;;;;;818470;173;26422;-80
2024/03/07 01:32:43;;;;;;;89.57;38.43;;;5.60;99.90;;;;;;813393;176;26412;-81
2024/03/07 01:35:10;;;;;;;89.30;40.47;;;5.50;99.90;;;;;;817828;173;26410;-81
2024/03/07 01:37:37;;;;;;;88.37;37.33;;;5.40;99.90;;;;;;811862;176;28133;-80
2024/03/07 01:40:05;;;;;;;88.13;39.50;;;5.40;99.90;;;;;;821137;172;26411;-80
2024/03/07 01:42:30;;;;;;;85.83;38.37;;;5.30;99.90;;;;;;806900;176;27067;-81
2024/03/07 01:44:57;;;;;;;81.93;38.90;;;5.30;99.90;;;;;;817519;173;26967;-79
2024/03/07 01:47:24;;;;;;;89.90;38.43;;;5.40;99.90;;;;;;805861;176;26428;-81
2024/03/07 01:49:51;;;;;;;87.80;38.90;;;5.50;99.90;;;;;;820060;173;26454;-79
2024/03/07 01:52:17;;;;;;;94.17;39.43;;;5.50;99.90;;;;;;811452;176;26590;-80
2024/03/07 01:54:44;;;;;;;94.53;40.70;;;5.50;99.90;;;;;;820842;173;26423;-81
2024/03/07 01:57:11;;;;;;;94.30;39.23;;;5.50;99.90;;;;;;809356;176;26455;-79
2024/03/07 01:59:37;;;;;;;88.83;41.63;;;5.60;99.90;;;;;;822788;173;26433;-80
2024/03/07 02:02:04;;;;;;;83.33;36.30;;;5.50;99.90;;;;;;820788;173;26423;-79
2024/03/07 02:04:31;;;;;;;77.97;35.43;;;5.40;99.90;;;;;;825234;172;26444;-80
2024/03/07 02:06:58;;;;;;;87.17;38.93;;;5.30;99.90;;;;;;818806;173;26944;-79
2024/03/07 02:09:25;;;;;;;83.60;37.00;;;5.20;99.90;;;;;;813250;176;26446;-79
2024/03/07 02:11:51;;;;;;;93.80;39.20;;;5.20;99.90;;;;;;808735;176;26463;-79
2024/03/07 02:14:18;;;;;;;83.57;37.57;;;5.30;99.90;;;;;;829616;173;26405;-78
2024/03/07 02:16:45;;;;;;;80.70;36.17;;;5.30;99.90;;;;;;822077;173;26410;-79
2024/03/07 02:19:11;;;;;;;81.30;34.87;;;5.20;99.90;;;;;;807525;175;26473;-81
2024/03/07 02:21:38;;;;;;;77.70;36.27;;;5.10;99.90;;;;;;813785;174;26465;-80
2024/03/07 02:24:05;;;;;;;76.03;35.03;;;5.10;99.90;;;;;;831038;172;26444;-80
2024/03/07 02:26:31;;;;;;;77.77;34.93;;;5.10;99.90;;;;;;819198;173;26392;-81
2024/03/07 02:28:58;;;;;;;81.47;35.67;;;5.00;99.90;;;;;;810558;174;26463;-79
2024/03/07 02:31:34;;;;;;;85.93;37.60;;;5.20;99.90;;;;;;821438;173;26400;-80
2024/03/07 02:33:52;;;;;;;76.67;34.93;;;5.30;99.90;;;;;;811502;176;26798;-80
2024/03/07 02:36:18;;;;;;;77.70;35.80;;;5.30;99.90;;;;;;819501;173;28012;-81
2024/03/07 02:38:45;;;;;;;83.30;35.13;;;5.20;99.90;;;;;;810644;174;26452;-81
2024/03/07 02:41:12;;;;;;;80.10;36.40;;;5.10;99.90;;;;;;812453;176;26450;-81
2024/03/07 02:43:38;;;;;;;89.87;35.73;;;5.00;99.90;;;;;;824308;172;26392;-81
2024/03/07 02:46:06;;;;;;;79.90;35.53;;;5.00;99.90;;;;;;822543;172;26420;-79
2024/03/07 02:48:32;;;;;;;82.63;38.00;;;4.90;99.90;;;;;;817999;173;26449;-80
2024/03/07 02:50:58;;;;;;;83.73;36.83;;;4.90;99.90;;;;;;807327;176;26468;-80
2024/03/07 02:53:25;;;;;;;82.60;36.80;;;5.00;99.90;;;;;;819150;173;26991;-77
2024/03/07 02:55:52;;;;;;;81.13;35.20;;;5.00;99.90;;;;;;819340;173;26389;-79
2024/03/07 02:58:19;;;;;;;84.03;36.50;;;4.90;99.90;;;;;;818175;173;26413;-80
2024/03/07 03:00:46;;;;;;;77.93;35.50;;;4.90;99.90;;;;;;812238;176;26437;-81
2024/03/07 03:03:12;;;;;;;72.40;34.00;;;4.90;99.90;;;;;;808113;176;26424;-81
2024/03/07 03:05:39;;;;;;;76.63;36.13;;;5.00;99.90;;;;;;824457;173;26469;-81
2024/03/07 03:08:06;;;;;;;74.40;32.77;;;5.00;99.90;;;;;;828315;173;26500;-81
2024/03/07 03:10:33;;;;;;;83.37;34.60;;;4.90;99.90;;;;;;822340;173;26397;-80
2024/03/07 03:13:00;;;;;;;77.87;35.57;;;5.00;99.90;;;;;;799723;172;26487;-77
2024/03/07 03:15:26;;;;;;;72.93;35.37;;;4.90;99.90;;;;;;794477;179;27041;-77
2024/03/07 03:17:52;;;;;;;72.83;33.70;;;4.90;99.90;;;;;;783392;182;26487;-77
2024/03/07 03:20:25;;;;;;;70.23;32.47;;;4.90;99.90;;;;;;798714;179;26478;-78
2024/03/07 03:22:52;;;;;;;79.93;34.53;;;4.90;99.90;;;;;;797450;179;26493;-78
2024/03/07 03:25:19;;;;;;;72.53;33.93;;;4.90;99.90;;;;;;801108;179;26471;-77
2024/03/07 03:27:46;;;;;;;71.60;33.37;;;4.80;99.90;;;;;;800434;179;26471;-77
2024/03/07 03:30:14;;;;;;;76.40;33.07;;;4.90;99.90;;;;;;800827;177;26482;-78
2024/03/07 03:32:39;;;;;;;66.30;32.93;;;4.70;99.90;;;;;;802118;179;26470;-77
2024/03/07 03:35:06;;;;;;;75.03;33.73;;;4.60;99.90;;;;;;802289;177;26450;-78
2024/03/07 03:37:33;;;;;;;72.00;33.20;;;4.60;99.90;;;;;;801009;177;26497;-78
2024/03/07 03:39:59;;;;;;;77.80;35.03;;;4.60;99.90;;;;;;800422;177;26480;-77
2024/03/07 03:42:26;;;;;;;74.83;33.30;;;4.60;99.90;;;;;;799458;179;27127;-78
2024/03/07 03:44:53;;;;;;;72.97;34.27;;;4.60;99.90;;;;;;799640;180;26482;-78
2024/03/07 03:47:20;;;;;;;71.87;33.17;;;4.60;99.90;;;;;;796989;180;27027;-78
2024/03/07 03:49:47;;;;;;;74.77;35.03;;;4.60;99.90;;;;;;797063;180;26467;-78
2024/03/07 03:52:13;;;;;;;76.57;35.07;;;4.60;99.90;;;;;;797580;179;27036;-78
2024/03/07 03:54:40;;;;;;;73.57;33.87;;;4.60;99.90;;;;;;798135;180;26467;-78
2024/03/07 03:57:07;;;;;;;70.67;32.53;;;4.60;99.90;;;;;;798639;177;26450;-79
2024/03/07 03:59:33;;;;;;;77.77;34.67;;;4.60;99.90;;;;;;797577;180;26503;-78
2024/03/07 04:01:59;;;;;;;74.60;34.80;;;4.50;99.90;;;;;;798513;180;26501;-78
2024/03/07 04:04:26;;;;;;;70.93;32.97;;;4.50;99.90;;;;;;798386;180;26486;-77
2024/03/07 04:06:53;;;;;;;68.17;33.67;;;4.40;99.90;;;;;;796823;179;26456;-78
2024/03/07 04:09:19;;;;;;;70.17;33.10;;;4.40;99.90;;;;;;796256;179;26541;-78
2024/03/07 04:11:46;;;;;;;71.30;32.60;;;4.40;99.90;;;;;;798717;179;26532;-78
2024/03/07 04:14:12;;;;;;;77.50;33.10;;;4.50;99.90;;;;;;795101;179;26456;-78
2024/03/07 04:16:39;;;;;;;72.87;35.37;;;4.40;99.90;;;;;;798000;179;26478;-78
2024/03/07 04:19:07;;;;;;;75.20;34.33;;;4.30;99.90;;;;;;796119;179;26469;-78
2024/03/07 04:21:32;;;;;;;73.80;33.53;;;4.40;99.90;;;;;;799760;179;26499;-79
2024/03/07 04:23:59;;;;;;;67.00;33.60;;;4.40;99.90;;;;;;798145;180;26523;-78
2024/03/07 04:26:26;;;;;;;69.13;33.60;;;4.50;99.90;;;;;;799317;179;26462;-79
2024/03/07 04:28:52;;;;;;;71.40;32.83;;;4.40;99.90;;;;;;797973;180;26524;-76
2024/03/07 04:31:18;;;;;;;68.33;33.43;;;4.50;99.90;;;;;;794765;179;26503;-80
2024/03/07 04:33:46;;;;;;;75.50;35.50;;;4.50;99.90;;;;;;798765;179;27002;-78
2024/03/07 04:36:12;;;;;;;67.73;33.07;;;4.60;99.90;;;;;;796878;180;26524;-78
2024/03/07 04:38:38;;;;;;;72.30;32.50;;;4.60;99.90;;;;;;796989;180;26469;-78
2024/03/07 04:41:05;;;;;;;70.67;34.47;;;4.50;99.90;;;;;;797237;179;26477;-77
2024/03/07 04:43:31;;;;;;;72.90;34.63;;;4.50;99.90;;;;;;801284;177;27085;-78
2024/03/07 04:45:58;;;;;;;69.73;33.87;;;4.50;99.90;;;;;;799605;179;26456;-78
2024/03/07 04:48:25;;;;;;;77.17;36.53;;;4.40;99.90;;;;;;798842;179;27010;-78
2024/03/07 04:50:51;;;;;;;76.30;35.53;;;4.40;99.90;;;;;;800788;179;26474;-78
2024/03/07 04:53:18;;;;;;;74.07;33.10;;;4.40;99.90;;;;;;797996;180;27126;-76
2024/03/07 04:55:44;;;;;;;77.10;35.00;;;4.30;99.90;;;;;;797388;180;26513;-77
2024/03/07 04:58:11;;;;;;;72.00;34.80;;;4.30;99.90;;;;;;796169;179;27067;-77
2024/03/07 05:00:37;;;;;;;73.80;34.60;;;4.20;99.90;;;;;;796840;179;26504;-78
2024/03/07 05:03:04;;;;;;;78.57;37.00;;;4.30;99.90;;;;;;797337;179;26496;-78
2024/03/07 05:05:31;;;;;;;78.93;37.20;;;4.40;99.90;;;;;;796602;180;26641;-77
2024/03/07 05:07:57;;;;;;;79.23;35.57;;;4.40;99.90;;;;;;798073;179;26874;-79
2024/03/07 05:10:24;;;;;;;71.10;33.97;;;4.50;99.90;;;;;;797374;179;26459;-78
2024/03/07 05:12:50;;;;;;;75.07;34.63;;;4.60;99.90;;;;;;799158;180;26474;-78
2024/03/07 05:15:17;;;;;;;65.30;33.47;;;4.70;99.90;;;;;;798280;179;26454;-77
2024/03/07 05:17:44;;;;;;;63.00;31.60;;;4.80;99.90;;;;;;799468;179;26475;-78
2024/03/07 05:20:12;;;;;;;73.93;33.87;;;5.00;99.90;;;;;;798292;178;26544;-77
2024/03/07 05:22:40;;;;;;;71.40;35.17;;;5.10;99.90;;;;;;798899;180;26478;-79
2024/03/07 05:25:05;;;;;;;64.53;33.67;;;5.20;99.90;;;;;;797439;176;26486;-77
2024/03/07 05:27:33;;;;;;;61.73;32.90;;;5.30;99.90;;;;;;798768;179;26545;-77
2024/03/07 05:29:58;;;;;;;63.23;32.97;;;5.30;99.90;;;;;;798612;179;27011;-77
2024/03/07 05:32:25;;;;;;;65.87;32.67;;;5.30;99.90;;;;;;798794;176;26490;-78
2024/03/07 05:34:53;;;;;;;60.90;31.53;;;5.30;99.90;;;;;;798699;179;27038;-78
2024/03/07 05:37:20;;;;;;;62.50;33.20;;;5.40;99.90;;;;;;798044;179;26538;-78
2024/03/07 05:39:45;;;;;;;63.27;33.67;;;5.40;99.90;;;;;;797419;180;26496;-78
2024/03/07 05:42:13;;;;;;;66.20;33.33;;;5.50;99.90;;;;;;797080;179;26505;-78
2024/03/07 05:44:39;;;;;;;64.83;34.17;;;5.50;99.90;;;;;;798131;179;26454;-77
2024/03/07 05:47:05;;;;;;;66.47;32.80;;;5.50;99.90;;;;;;798247;179;26472;-78
2024/03/07 05:49:31;;;;;;;64.87;33.40;;;5.50;99.90;;;;;;796885;180;27028;-79
2024/03/07 05:51:58;;;;;;;66.00;34.13;;;5.50;99.90;;;;;;798412;178;26477;-79
2024/03/07 05:54:25;;;;;;;60.67;31.40;;;5.60;99.90;;;;;;800468;179;26476;-78
2024/03/07 05:56:52;;;;;;;60.70;32.33;;;5.60;99.90;;;;;;801386;176;26469;-79
2024/03/07 05:59:19;;;;;;;59.43;31.77;;;5.60;99.90;;;;;;800390;177;26444;-78
2024/03/07 06:01:45;;;;;;;62.20;33.60;;;5.60;99.90;;;;;;800294;177;26517;-78
2024/03/07 06:04:12;;;;;;;68.20;34.00;;;5.60;99.90;;;;;;799301;177;26456;-79
2024/03/07 06:06:38;;;;;;;63.57;33.17;;;5.60;99.90;;;;;;800461;179;26479;-77
2024/03/07 06:09:08;;;;;;;63.23;32.47;;;5.60;99.90;;;;;;800479;179;26460;-79
2024/03/07 06:11:36;;;;;;;65.27;33.20;;;5.60;99.90;;;;;;800183;177;26486;-78
2024/03/07 06:14:03;;;;;;;57.53;32.33;;;5.60;99.90;;;;;;799411;177;26490;-78
2024/03/07 06:16:32;;;;;;;65.27;33.50;;;5.50;99.90;;;;;;796652;179;26454;-77
2024/03/07 06:19:01;;;;;;;61.93;32.90;;;5.50;99.90;;;;;;796570;179;26475;-78
2024/03/07 06:21:28;;;;;;;67.70;33.60;;;5.50;99.90;;;;;;799692;179;26728;-79
2024/03/07 06:23:59;;;;;;;61.63;32.73;;;5.50;99.90;;;;;;797834;179;26461;-79
2024/03/07 06:26:36;;;;;;;67.23;33.60;;;5.40;99.90;;;;;;798460;180;26442;-78
2024/03/07 06:28:47;;;;;;;68.63;33.57;;;5.40;99.90;;;;;;796665;180;26485;-79
2024/03/07 06:31:14;;;;;;;61.73;32.47;;;5.30;99.90;;;;;;798590;178;26483;-79
2024/03/07 06:33:41;;;;;;;59.67;32.77;;;5.30;99.90;;;;;;795417;180;26634;-79
2024/03/07 06:36:08;;;;;;;64.57;33.07;;;5.30;99.90;;;;;;799488;179;26454;-79
2024/03/07 06:38:35;;;;;;;60.27;31.30;;;5.20;99.90;;;;;;797249;180;26475;-79
2024/03/07 06:41:02;;;;;;;66.40;34.10;;;5.20;99.90;;;;;;796584;180;26455;-79
2024/03/07 06:43:29;;;;;;;66.77;34.87;;;5.20;99.90;;;;;;798423;180;26479;-79
2024/03/07 06:45:54;;;;;;;60.87;31.73;;;5.10;99.90;;;;;;797251;180;26472;-79
2024/03/07 06:48:21;;;;;;;64.53;32.03;;;5.20;99.90;;;;;;797196;180;26506;-79
2024/03/07 06:50:47;;;;;;;61.50;32.73;;;5.20;99.90;;;;;;799496;180;26447;-79
2024/03/07 06:53:14;;;;;;;62.77;32.27;;;5.10;99.90;;;;;;800296;180;27002;-78
2024/03/07 06:55:41;;;;;;;67.43;32.67;;;5.10;99.90;;;;;;799054;180;26538;-78
2024/03/07 06:58:07;;;;;;;64.10;32.10;;;5.20;99.90;;;;;;797860;180;26482;-78
2024/03/07 07:00:35;;;;;;;59.53;32.97;;;5.20;99.90;;;;;;797379;180;26464;-78
2024/03/07 07:03:03;;;;;;;59.77;32.70;;;5.20;99.90;;;;;;797965;179;26493;-79
2024/03/07 07:05:28;;;;;;;55.03;31.10;;;5.30;99.90;;;;;;799483;179;26479;-78
2024/03/07 07:07:55;;;;;;;63.20;31.33;;;5.30;99.90;;;;;;799330;179;26465;-78
2024/03/07 07:10:24;;;;;;;61.10;31.47;;;5.30;99.90;;;;;;797816;179;26452;-78
2024/03/07 07:12:48;;;;;;;56.87;30.23;;;5.30;99.90;;;;;;799758;179;26457;-78
2024/03/07 07:15:15;;;;;;;55.50;31.53;;;5.30;99.90;;;;;;798003;179;26474;-78
2024/03/07 07:17:45;;;;;;;60.97;33.90;;;5.30;99.90;;;;;;799537;178;26436;-78
2024/03/07 07:20:10;;;;;;;67.33;33.63;;;5.30;99.90;;;;;;802093;178;26514;-79
2024/03/07 07:22:37;;;;;;;59.93;32.83;;;5.40;99.90;;;;;;800632;180;26482;-79
2024/03/07 07:25:04;;;;;;;58.17;30.80;;;5.50;99.90;;;;;;800554;177;26454;-78
2024/03/07 07:27:30;;;;;;;60.37;32.30;;;5.60;99.90;;;;;;799534;179;26467;-79
2024/03/07 07:29:57;;;;;;;55.07;29.90;;;5.50;99.90;;;;;;800254;179;26454;-78
2024/03/07 07:32:23;;;;;;;59.63;32.17;;;5.60;99.90;;;;;;801440;180;26462;-79
2024/03/07 07:34:50;;;;;;;55.37;31.07;;;5.60;99.90;;;;;;799430;179;26488;-79
2024/03/07 07:37:16;;;;;;;56.97;30.97;;;5.60;99.90;;;;;;800459;179;26485;-79
2024/03/07 07:39:43;;;;;;;55.60;31.63;;;5.70;99.90;;;;;;798713;177;26475;-78
2024/03/07 07:42:10;;;;;;;60.13;30.83;;;5.70;99.90;;;;;;797473;179;26508;-79
2024/03/07 07:44:36;;;;;;;54.20;29.57;;;5.80;99.90;;;;;;795192;180;26585;-78
2024/03/07 07:47:03;;;;;;;54.80;29.40;;;5.80;99.90;;;;;;794792;180;26541;-79
2024/03/07 07:49:29;;;;;;;53.63;28.37;;;5.90;99.90;;;;;;798003;179;26485;-79
2024/03/07 07:51:56;;;;;;;48.80;29.23;;;5.90;99.90;;;;;;796136;180;27019;-79
2024/03/07 07:54:24;;;;;;;45.20;26.40;;;6.00;99.90;;;;;;799101;180;26455;-79
2024/03/07 07:56:49;;;;;;;48.37;27.50;;;6.00;99.90;;;;;;797445;179;26469;-79
2024/03/07 07:59:16;;;;;;;45.97;26.73;;;6.10;99.90;;;;;;794834;179;26452;-79
2024/03/07 08:01:43;;;;;;;47.63;26.80;;;6.20;99.90;;;;;;795331;177;26525;-77
2024/03/07 08:04:10;;;;;;;50.90;27.73;;;6.20;99.90;;;;;;797178;179;26536;-77
2024/03/07 08:06:36;;;;;;;45.00;25.63;;;6.30;99.90;;;;;;793114;180;26473;-78
2024/03/07 08:09:03;;;;;;;43.97;25.50;;;6.50;99.90;;;;;;796825;179;26475;-78
2024/03/07 08:11:30;;;;;;;46.27;26.23;;;6.60;99.90;;;;;;797880;179;27035;-77
2024/03/07 08:13:56;;;;;;;46.93;25.93;;;6.60;99.90;;;;;;795652;180;26479;-78
2024/03/07 08:16:24;;;;;;;46.00;26.90;;;6.70;99.90;;;;;;797444;177;27036;-78
2024/03/07 08:18:49;;;;;;;48.60;27.50;;;6.80;99.90;;;;;;804351;177;26441;-78
2024/03/07 08:21:16;;;;;;;44.83;26.37;;;6.80;99.90;;;;;;803700;179;26457;-79
2024/03/07 08:23:42;;;;;;;45.97;24.97;;;6.90;99.90;;;;;;803209;177;26439;-78
2024/03/07 08:26:09;;;;;;;43.53;26.07;;;7.00;99.90;;;;;;798255;179;26487;-78
2024/03/07 08:28:35;;;;;;;43.70;23.77;;;7.10;99.90;;;;;;797271;180;26450;-78
2024/03/07 08:31:02;;;;;;;39.63;24.07;;;7.20;99.90;;;;;;799040;179;26477;-79
2024/03/07 08:33:29;;;;;;;39.80;23.63;;;7.20;99.90;;;;;;799009;180;26453;-79
2024/03/07 08:35:55;;;;;;;37.87;22.40;;;7.20;99.90;;;;;;799923;180;26478;-79
2024/03/07 08:38:22;;;;;;;39.63;23.10;;;7.40;99.90;;;;;;798523;180;26492;-78
2024/03/07 08:40:49;;;;;;;40.53;23.07;;;7.40;99.90;;;;;;799701;179;26511;-78
2024/03/07 08:43:16;;;;;;;39.03;22.03;;;7.40;99.90;;;;;;799868;177;26466;-79
2024/03/07 08:45:42;;;;;;;36.80;22.10;;;7.50;99.90;;;;;;797861;180;27000;-79
2024/03/07 08:48:09;;;;;;;41.70;21.87;;;7.70;99.90;;;;;;801278;177;26438;-79
2024/03/07 08:50:37;;;;;;;39.43;21.37;;;7.80;99.90;;;;;;799653;179;26472;-78
2024/03/07 08:53:04;;;;;;;39.00;22.80;;;7.80;99.90;;;;;;796457;179;26468;-79
2024/03/07 08:55:30;;;;;;;39.50;21.43;;;8.00;99.90;;;;;;796150;180;26465;-79
2024/03/07 08:57:56;;;;;;;36.60;21.27;;;8.10;99.90;;;;;;798384;179;26454;-78
2024/03/07 09:00:23;;;;;;;36.13;21.33;;;8.20;99.90;;;;;;796823;179;26447;-79
2024/03/07 09:02:53;;;;;;;34.67;20.20;;;8.20;99.90;;;;;;797297;180;26512;-77
2024/03/07 09:05:21;;;;;;;35.20;21.20;;;8.30;99.00;;;;;;796780;180;26459;-79
2024/03/07 09:07:47;;;;;;;31.00;18.50;;;8.30;98.20;;;;;;799623;180;26495;-79
2024/03/07 09:10:16;;;;;;;32.57;19.57;;;8.30;99.90;;;;;;798243;179;26487;-79
2024/03/07 09:12:45;;;;;;;33.97;20.97;;;8.30;99.40;;;;;;801119;171;26509;-82
2024/03/07 09:15:21;;;;;;;39.67;20.80;;;8.50;99.90;;;;;;795170;180;26493;-82
2024/03/07 09:17:48;;;;;;;29.43;17.97;;;8.60;99.90;;;;;;798755;178;26464;-82
2024/03/07 09:20:23;;;;;;;29.53;18.63;;;8.60;99.20;;;;;;783596;182;26508;-82
2024/03/07 09:22:50;;;;;;;33.80;18.83;;;8.70;97.60;;;;;;803989;170;26511;-85
2024/03/07 09:31:02;;;;;;;35.30;20.03;;;8.70;97.40;;;;;;808764;175;26409;-84
2024/03/07 09:33:29;;;;;;;33.57;19.93;;;8.80;99.10;;;;;;802731;178;26426;-84
2024/03/07 09:35:58;;;;;;;30.83;19.57;;;9.00;97.40;;;;;;802347;178;26469;-85
2024/03/07 09:38:22;;;;;;;35.17;19.83;;;8.90;98.00;;;;;;801152;179;26472;-83
2024/03/07 09:40:49;;;;;;;32.17;19.97;;;9.10;97.90;;;;;;803025;175;27021;-82
2024/03/07 09:43:16;;;;;;;35.10;20.90;;;9.40;96.90;;;;;;802453;177;26603;-85
2024/03/07 09:45:42;;;;;;;30.63;19.27;;;9.50;97.40;;;;;;801461;179;26439;-84
2024/03/07 09:48:09;;;;;;;33.70;20.03;;;9.40;96.00;;;;;;808268;176;26497;-84
2024/03/07 09:50:36;;;;;;;30.63;18.30;;;9.30;98.70;;;;;;802088;179;26434;-85
2024/03/07 09:53:03;;;;;;;34.70;20.07;;;9.00;95.60;;;;;;800780;178;26529;-84
2024/03/07 09:55:29;;;;;;;33.07;20.00;;;8.90;97.10;;;;;;791483;180;26461;-84
2024/03/07 09:57:56;;;;;;;31.50;18.80;;;9.20;96.80;;;;;;799581;177;26451;-85
2024/03/07 10:00:25;;;;;;;33.67;19.47;;;9.40;96.10;;;;;;807860;177;26543;-83
2024/03/07 10:02:54;;;;;;;39.90;20.33;;;9.40;95.40;;;;;;800467;177;26439;-84
2024/03/07 10:05:20;;;;;;;35.10;20.20;;;9.40;96.60;;;;;;807845;177;26440;-83
2024/03/07 10:07:46;;;;;;;37.60;22.00;;;9.40;96.90;;;;;;801207;176;26466;-83
2024/03/07 10:10:13;;;;;;;32.87;19.70;;;9.40;98.10;;;;;;800823;178;26506;-83
2024/03/07 10:12:40;;;;;;;35.27;20.03;;;9.50;96.50;;;;;;800774;179;27014;-84
2024/03/07 10:15:10;;;;;;;33.53;21.73;;;9.50;97.50;;;;;;801893;178;26424;-84
2024/03/07 10:17:33;;;;;;;34.20;20.80;;;9.80;96.10;;;;;;801320;178;26489;-84
2024/03/07 10:20:01;;;;;;;34.07;20.47;;;9.80;95.60;;;;;;803055;178;26426;-84
2024/03/07 10:22:27;;;;;;;33.57;20.80;;;9.60;95.90;;;;;;800670;177;26431;-85
2024/03/07 10:24:53;;;;;;;34.90;20.73;;;9.60;95.10;;;;;;788749;180;26424;-84
2024/03/07 10:27:20;;;;;;;36.17;20.63;;;9.60;95.60;;;;;;805174;177;26450;-85
2024/03/07 10:29:50;;;;;;;35.10;21.10;;;9.90;94.30;;;;;;803452;176;27027;-85
2024/03/07 10:32:16;;;;;;;33.57;20.90;;;10.10;93.60;;;;;;803067;178;26488;-84
2024/03/07 10:34:46;;;;;;;39.13;21.40;;;10.20;94.20;;;;;;801114;178;26443;-84
2024/03/07 10:37:10;;;;;;;34.37;21.03;;;10.20;95.00;;;;;;800093;177;26477;-83
2024/03/07 10:39:36;;;;;;;40.07;22.20;;;10.00;93.20;;;;;;800217;177;26434;-84
2024/03/07 10:42:05;;;;;;;39.40;20.97;;;10.00;94.80;;;;;;804640;177;26409;-87
2024/03/07 10:44:44;;;;;;;34.83;21.00;;;10.10;93.00;;;;;;811286;169;26474;-78
2024/03/07 10:47:17;;;;;;;33.50;20.37;;;10.20;92.60;;;;;;798858;180;26729;-84
2024/03/07 10:50:14;;;;;;;29.70;18.97;;;10.00;92.20;;;;;;800066;178;26438;-81
2024/03/07 10:52:51;;;;;;;35.90;19.37;;;10.10;92.40;;;;;;798439;179;26476;-83
2024/03/07 10:55:42;;;;;;;37.03;20.10;;;10.20;92.40;;;;;;798065;180;26518;-83
2024/03/07 10:58:32;;;;;;;36.80;20.30;;;10.40;92.00;;;;;;790732;179;27031;-84
2024/03/07 11:01:12;;;;;;;32.67;20.10;;;10.80;91.30;;;;;;792896;177;26454;-82
2024/03/07 11:03:42;;;;;;;37.07;20.57;;;11.10;91.00;;;;;;797327;177;27819;-87
2024/03/07 11:06:20;;;;;;;31.97;19.87;;;11.40;91.90;;;;;;799850;176;26442;-86
2024/03/07 11:08:57;;;;;;;31.60;19.27;;;11.40;90.50;;;;;;829859;169;26459;-80
2024/03/07 11:11:45;;;;;;;32.33;18.23;;;11.50;90.40;;;;;;815942;174;26409;-81
2024/03/07 11:14:35;;;;;;;33.80;20.43;;;11.60;91.90;;;;;;821491;173;26418;-82
2024/03/07 11:17:14;;;;;;;30.77;19.23;;;11.80;90.10;;;;;;808499;175;27047;-83
2024/03/07 11:22:27;;;;;;;31.57;20.10;;;11.20;91.70;;;;;;819419;174;26434;-81
2024/03/07 11:25:12;;;;;;;30.07;18.50;;;11.30;91.30;;;;;;823135;174;26476;-83
2024/03/07 11:27:55;;;;;;;30.00;18.93;;;11.20;89.00;;;;;;801873;177;26434;-83
2024/03/07 11:30:28;;;;;;;32.77;19.67;;;11.10;90.70;;;;;;809374;176;26557;-81
2024/03/07 11:32:59;;;;;;;31.83;19.20;;;11.20;90.60;;;;;;791583;180;26478;-83
2024/03/07 11:35:48;;;;;;;30.83;19.57;;;11.30;90.10;;;;;;802422;179;26499;-81
2024/03/07 11:38:23;;;;;;;32.77;19.93;;;11.20;92.20;;;;;;811234;175;26403;-82
2024/03/07 11:41:00;;;;;;;38.67;20.97;;;11.20;91.40;;;;;;809654;176;26450;-81
2024/03/07 11:43:37;;;;;;;38.17;20.97;;;11.30;91.80;;;;;;812776;177;26461;-82
2024/03/07 11:46:17;;;;;;;31.23;19.63;;;11.40;90.50;;;;;;809620;177;26460;-79
2024/03/07 11:48:54;;;;;;;35.07;19.33;;;11.30;92.40;;;;;;816199;176;26463;-82
2024/03/07 11:51:28;;;;;;;32.23;20.47;;;11.10;92.50;;;;;;812655;174;26428;-83
2024/03/07 11:53:58;;;;;;;28.73;18.23;;;11.30;93.90;;;;;;816853;174;26427;-82
2024/03/07 11:56:32;;;;;;;29.33;18.43;;;11.80;91.80;;;;;;821649;174;26421;-83
2024/03/07 11:59:12;;;;;;;30.23;18.43;;;12.60;87.50;;;;;;796722;180;26643;-82
2024/03/07 12:04:57;;;;;;;31.23;18.10;;;14.80;75.40;;;;;;817644;174;26529;-80
2024/03/07 12:10:10;;;;;;;27.37;18.00;;;16.00;56.30;;;;;;819834;175;26395;-82
2024/03/07 12:13:01;;;;;;;26.60;17.67;;;16.70;55.90;;;;;;812024;175;26610;-81
2024/03/07 12:15:40;;;;;;;25.07;17.23;;;16.10;55.60;;;;;;822791;175;26423;-83
2024/03/07 12:18:17;;;;;;;28.07;17.67;;;15.90;61.60;;;;;;797741;176;26410;-78
2024/03/07 12:23:30;;;;;;;27.20;17.77;;;13.70;70.90;;;;;;816339;168;26487;-84
2024/03/07 12:26:04;;;;;;;28.50;17.63;;;13.10;83.30;;;;;;801817;177;26459;-85
2024/03/07 12:28:33;;;;;;;29.17;18.07;;;12.70;79.50;;;;;;805891;178;26460;-85
2024/03/07 12:31:03;;;;;;;31.37;17.30;;;12.20;85.20;;;;;;797154;178;26482;-86
2024/03/07 12:33:32;;;;;;;28.10;17.03;;;11.90;87.90;;;;;;798417;179;26432;-85
2024/03/07 12:36:00;;;;;;;27.40;16.63;;;11.50;92.70;;;;;;795311;179;27244;-84
2024/03/07 12:38:35;;;;;;;27.27;16.30;;;11.40;92.10;;;;;;811119;177;27044;-82
2024/03/07 12:41:05;;;;;;;32.13;16.77;;;11.30;91.80;;;;;;799583;177;26429;-83
2024/03/07 12:43:30;;;;;;;26.10;15.00;;;11.50;92.50;;;;;;812944;176;26442;-82
2024/03/07 12:45:58;;;;;;;24.23;15.13;;;13.30;91.00;;;;;;798232;177;26524;-83
2024/03/07 12:48:49;;;;;;;24.83;14.23;;;15.60;73.90;;;;;;800554;179;26488;-86
2024/03/07 12:51:19;;;;;;;22.30;15.10;;;16.80;59.10;;;;;;797608;178;26442;-84
2024/03/07 12:53:46;;;;;;;27.83;16.13;;;16.50;51.60;;;;;;798762;180;26435;-82
2024/03/07 12:56:20;;;;;;;19.93;14.40;;;15.70;68.40;;;;;;798800;176;26444;-85
2024/03/07 12:58:49;;;;;;;22.30;14.43;;;15.20;59.20;;;;;;798833;178;26482;-83